Time;durP1;ratioP1;P1;durP2;ratioP2;P2;SDS_P1;SDS_P2;PMS_P1;PMS_P2;Temp;Humidity;BMP_temperature;BMP_pressure;BME280_temperature;BME280_humidity;BME280_pressure;Samples;Min_cycle;Max_cycle;Signal;HPM_P1;HPM_P2
2022/07/12 00:00:42;;;;;;;10.43;8.00;;;;;;;;;;4981968;28;20011;-69
2022/07/12 00:03:08;;;;;;;12.37;7.83;;;;;;;;;;4984754;28;20049;-69
2022/07/12 00:05:33;;;;;;;9.53;6.83;;;;;;;;;;4980520;28;20369;-69
2022/07/12 00:07:58;;;;;;;10.90;7.88;;;;;;;;;;4981913;28;20313;-69
2022/07/12 00:10:23;;;;;;;10.17;7.93;;;;;;;;;;4983306;28;20113;-69
2022/07/12 00:12:48;;;;;;;11.30;7.73;;;;;;;;;;4980855;28;20277;-69
2022/07/12 00:15:15;;;;;;;11.05;7.45;;;;;;;;;;4983293;28;20292;-69
2022/07/12 00:17:41;;;;;;;9.90;7.32;;;;;;;;;;4987544;28;20019;-69
2022/07/12 00:20:07;;;;;;;9.57;6.90;;;;;;;;;;4990724;28;20038;-69
2022/07/12 00:22:32;;;;;;;8.63;6.95;;;;;;;;;;4988172;28;20285;-69
2022/07/12 00:24:58;;;;;;;11.60;8.13;;;;;;;;;;4988333;28;20022;-70
2022/07/12 00:27:23;;;;;;;10.23;7.55;;;;;;;;;;4987036;28;20145;-69
2022/07/12 00:29:48;;;;;;;14.88;7.78;;;;;;;;;;4985317;28;20109;-69
2022/07/12 00:32:13;;;;;;;15.02;9.05;;;;;;;;;;4991274;28;20030;-69
2022/07/12 00:34:38;;;;;;;11.03;8.63;;;;;;;;;;4984560;28;20037;-69
2022/07/12 00:37:04;;;;;;;11.47;8.47;;;;;;;;;;4987369;28;20305;-69
2022/07/12 00:39:29;;;;;;;11.98;8.35;;;;;;;;;;4988950;28;20288;-70
2022/07/12 00:41:54;;;;;;;10.00;8.20;;;;;;;;;;4991263;28;20026;-69
2022/07/12 00:44:19;;;;;;;13.35;8.38;;;;;;;;;;4991273;28;20018;-69
2022/07/12 00:46:45;;;;;;;12.05;8.52;;;;;;;;;;4987438;28;20026;-69
2022/07/12 00:49:15;;;;;;;12.65;8.07;;;;;;;;;;4994622;28;20073;-70
2022/07/12 00:51:40;;;;;;;11.15;7.70;;;;;;;;;;4995716;28;20030;-69
2022/07/12 00:54:06;;;;;;;8.98;6.93;;;;;;;;;;4992484;28;20105;-69
2022/07/12 00:56:31;;;;;;;10.57;7.88;;;;;;;;;;4992154;28;20021;-70
2022/07/12 00:58:56;;;;;;;13.88;8.70;;;;;;;;;;4993252;28;21732;-69
2022/07/12 01:01:22;;;;;;;9.70;7.70;;;;;;;;;;4991617;28;20101;-69
2022/07/12 01:03:48;;;;;;;11.10;8.38;;;;;;;;;;4989465;28;20627;-69
2022/07/12 01:06:14;;;;;;;11.20;8.60;;;;;;;;;;4993624;28;20037;-69
2022/07/12 01:08:40;;;;;;;10.43;8.38;;;;;;;;;;4993981;28;20022;-69
2022/07/12 01:11:05;;;;;;;11.70;8.95;;;;;;;;;;4989352;28;20022;-68
2022/07/12 01:13:30;;;;;;;18.37;9.17;;;;;;;;;;4992032;28;20054;-69
2022/07/12 01:15:56;;;;;;;15.77;8.90;;;;;;;;;;4990846;28;20273;-69
2022/07/12 01:18:21;;;;;;;10.52;8.32;;;;;;;;;;4992960;28;20090;-69
2022/07/12 01:20:47;;;;;;;13.40;8.43;;;;;;;;;;4990858;28;20038;-69
2022/07/12 01:23:13;;;;;;;12.53;8.97;;;;;;;;;;4993115;28;20068;-69
2022/07/12 01:25:38;;;;;;;13.30;8.95;;;;;;;;;;4993103;28;20368;-70
2022/07/12 01:28:03;;;;;;;11.97;9.53;;;;;;;;;;4989407;28;20023;-69
2022/07/12 01:30:28;;;;;;;10.48;8.38;;;;;;;;;;4999257;28;20774;-69
2022/07/12 01:32:54;;;;;;;14.50;9.53;;;;;;;;;;4993867;28;20093;-69
2022/07/12 01:35:20;;;;;;;11.60;8.32;;;;;;;;;;4987461;28;20289;-70
2022/07/12 01:37:46;;;;;;;12.05;8.23;;;;;;;;;;4976019;28;20813;-69
2022/07/12 01:40:12;;;;;;;10.57;8.55;;;;;;;;;;4989615;28;20018;-69
2022/07/12 01:42:38;;;;;;;14.63;8.85;;;;;;;;;;4992846;28;20459;-69
2022/07/12 01:45:04;;;;;;;10.13;8.38;;;;;;;;;;4992191;28;20033;-69
2022/07/12 01:47:30;;;;;;;12.95;9.63;;;;;;;;;;4985816;28;20034;-69
2022/07/12 01:49:55;;;;;;;27.13;9.05;;;;;;;;;;4990542;28;20030;-70
2022/07/12 01:52:21;;;;;;;9.40;7.55;;;;;;;;;;4990904;28;20029;-70
2022/07/12 01:54:46;;;;;;;11.52;9.20;;;;;;;;;;4975949;28;20061;-70
2022/07/12 01:57:11;;;;;;;10.63;8.43;;;;;;;;;;4989692;28;20026;-70
2022/07/12 01:59:37;;;;;;;11.85;8.63;;;;;;;;;;4988062;28;20109;-70
2022/07/12 02:02:03;;;;;;;13.02;8.50;;;;;;;;;;5009684;22;20438;-90
2022/07/12 02:04:31;;;;;;;11.48;9.10;;;;;;;;;;4996141;28;20049;-90
2022/07/12 02:06:56;;;;;;;10.63;8.88;;;;;;;;;;4988235;28;20024;-92
2022/07/12 02:09:22;;;;;;;11.07;9.35;;;;;;;;;;5006499;28;20022;-90
2022/07/12 02:11:48;;;;;;;12.05;8.85;;;;;;;;;;4992122;28;20030;-90
2022/07/12 02:14:16;;;;;;;14.50;8.90;;;;;;;;;;4991918;28;20041;-91
2022/07/12 02:16:41;;;;;;;10.90;8.82;;;;;;;;;;4995659;28;20021;-90
2022/07/12 02:19:07;;;;;;;13.48;9.02;;;;;;;;;;5006615;28;20249;-90
2022/07/12 02:21:33;;;;;;;13.32;9.05;;;;;;;;;;5006031;28;20030;-90
2022/07/12 02:23:58;;;;;;;10.27;8.05;;;;;;;;;;4993709;28;20036;-90
2022/07/12 02:26:23;;;;;;;11.23;8.93;;;;;;;;;;4998558;28;20022;-90
2022/07/12 02:28:49;;;;;;;13.40;9.13;;;;;;;;;;4998429;28;20121;-90
2022/07/12 02:31:14;;;;;;;11.93;8.52;;;;;;;;;;4993592;28;20305;-91
2022/07/12 02:33:39;;;;;;;10.82;8.23;;;;;;;;;;5024154;23;20041;-67
2022/07/12 02:36:05;;;;;;;13.90;8.63;;;;;;;;;;5028522;28;20025;-67
2022/07/12 02:38:30;;;;;;;10.45;7.85;;;;;;;;;;5027834;28;20018;-67
2022/07/12 02:40:55;;;;;;;10.70;8.02;;;;;;;;;;5025629;28;20014;-66
2022/07/12 02:43:24;;;;;;;11.05;8.82;;;;;;;;;;5009824;28;20018;-67
2022/07/12 02:45:49;;;;;;;11.68;8.10;;;;;;;;;;5007349;28;20029;-67
2022/07/12 02:48:14;;;;;;;10.85;8.30;;;;;;;;;;5009436;28;20565;-67
2022/07/12 02:50:40;;;;;;;12.05;8.70;;;;;;;;;;5009060;28;20097;-67
2022/07/12 02:53:05;;;;;;;11.88;7.80;;;;;;;;;;5007912;28;20110;-67
2022/07/12 02:55:31;;;;;;;14.55;8.75;;;;;;;;;;5009542;28;20041;-67
2022/07/12 02:57:56;;;;;;;10.55;7.72;;;;;;;;;;5010719;28;20505;-67
2022/07/12 03:00:21;;;;;;;11.20;8.47;;;;;;;;;;5002923;28;20021;-67
2022/07/12 03:02:46;;;;;;;12.13;8.70;;;;;;;;;;5009532;28;20352;-67
2022/07/12 03:05:11;;;;;;;11.83;8.67;;;;;;;;;;5008501;28;20342;-67
2022/07/12 03:07:36;;;;;;;11.27;8.55;;;;;;;;;;5009319;28;20269;-67
2022/07/12 03:10:02;;;;;;;13.60;8.20;;;;;;;;;;5009425;28;20032;-67
2022/07/12 03:12:27;;;;;;;14.80;9.00;;;;;;;;;;5006599;28;20419;-67
2022/07/12 03:14:54;;;;;;;11.30;8.30;;;;;;;;;;5008511;28;20025;-67
2022/07/12 03:17:19;;;;;;;10.88;7.90;;;;;;;;;;5008178;28;20465;-67
2022/07/12 03:19:44;;;;;;;10.23;8.10;;;;;;;;;;5009613;28;20014;-66
2022/07/12 03:22:09;;;;;;;14.47;8.30;;;;;;;;;;5003516;28;20363;-66
2022/07/12 03:24:34;;;;;;;10.43;8.10;;;;;;;;;;5008846;28;20645;-67
2022/07/12 03:26:59;;;;;;;10.93;8.07;;;;;;;;;;5008138;28;20288;-66
2022/07/12 03:29:25;;;;;;;11.13;8.80;;;;;;;;;;5008142;28;20273;-66
2022/07/12 03:31:50;;;;;;;10.90;8.27;;;;;;;;;;5008173;28;20645;-67
2022/07/12 03:34:15;;;;;;;10.80;8.63;;;;;;;;;;5008205;28;20285;-67
2022/07/12 03:36:40;;;;;;;11.60;8.83;;;;;;;;;;5008080;28;20060;-67
2022/07/12 03:39:05;;;;;;;14.97;8.03;;;;;;;;;;5006977;28;20304;-67
2022/07/12 03:41:31;;;;;;;14.70;8.30;;;;;;;;;;5004204;28;20284;-67
2022/07/12 03:43:56;;;;;;;15.00;8.35;;;;;;;;;;5005697;28;20284;-67
2022/07/12 03:46:21;;;;;;;12.23;8.37;;;;;;;;;;5005632;28;20030;-67
2022/07/12 03:48:46;;;;;;;11.07;8.17;;;;;;;;;;5003629;28;20297;-67
2022/07/12 03:51:11;;;;;;;10.00;7.70;;;;;;;;;;5007346;28;20283;-67
2022/07/12 03:53:36;;;;;;;10.80;7.53;;;;;;;;;;5006502;28;20749;-67
2022/07/12 03:56:02;;;;;;;10.00;7.32;;;;;;;;;;5007755;28;20276;-67
2022/07/12 03:58:27;;;;;;;13.37;7.90;;;;;;;;;;5004786;28;20093;-67
2022/07/12 04:00:52;;;;;;;10.57;8.37;;;;;;;;;;5008742;28;20277;-67
2022/07/12 04:03:18;;;;;;;13.43;8.48;;;;;;;;;;5008885;28;20771;-66
2022/07/12 04:05:43;;;;;;;11.20;7.53;;;;;;;;;;5007778;28;20022;-67
2022/07/12 04:08:08;;;;;;;10.07;7.82;;;;;;;;;;5007711;28;20440;-66
2022/07/12 04:10:33;;;;;;;12.00;8.45;;;;;;;;;;5009888;28;20025;-66
2022/07/12 04:12:58;;;;;;;11.40;7.80;;;;;;;;;;5007364;28;20045;-67
2022/07/12 04:15:24;;;;;;;11.18;8.18;;;;;;;;;;4990612;28;20822;-66
2022/07/12 04:17:49;;;;;;;12.77;8.60;;;;;;;;;;4992518;28;20037;-67
2022/07/12 04:20:14;;;;;;;11.77;8.07;;;;;;;;;;5010243;28;20272;-67
2022/07/12 04:22:39;;;;;;;13.55;8.13;;;;;;;;;;4990598;28;20026;-66
2022/07/12 04:25:06;;;;;;;11.60;8.02;;;;;;;;;;5010082;28;20022;-67
2022/07/12 04:27:31;;;;;;;10.07;7.53;;;;;;;;;;5008671;28;20100;-66
2022/07/12 04:29:56;;;;;;;11.30;8.18;;;;;;;;;;5008208;28;20152;-67
2022/07/12 04:32:21;;;;;;;12.20;8.90;;;;;;;;;;4989313;28;20034;-66
2022/07/12 04:34:47;;;;;;;11.70;8.02;;;;;;;;;;5008140;28;20288;-67
2022/07/12 04:37:12;;;;;;;11.87;8.07;;;;;;;;;;5007504;28;20463;-67
2022/07/12 04:39:37;;;;;;;12.13;7.67;;;;;;;;;;5008648;28;20357;-66
2022/07/12 04:42:02;;;;;;;11.35;7.32;;;;;;;;;;5010150;28;20708;-66
2022/07/12 04:44:27;;;;;;;11.50;7.65;;;;;;;;;;5009103;28;20658;-67
2022/07/12 04:46:53;;;;;;;10.47;7.57;;;;;;;;;;5008406;28;20061;-66
2022/07/12 04:49:18;;;;;;;11.32;7.57;;;;;;;;;;5005567;28;20644;-67
2022/07/12 04:51:43;;;;;;;11.70;7.65;;;;;;;;;;5007894;28;20022;-67
2022/07/12 04:54:09;;;;;;;10.68;7.85;;;;;;;;;;5009770;28;20041;-67
2022/07/12 04:56:34;;;;;;;10.65;8.05;;;;;;;;;;5008971;28;20022;-66
2022/07/12 04:58:59;;;;;;;14.93;7.28;;;;;;;;;;5010314;28;20017;-67
2022/07/12 05:01:25;;;;;;;10.97;8.03;;;;;;;;;;5008796;28;20049;-66
2022/07/12 05:03:50;;;;;;;10.60;7.65;;;;;;;;;;5011158;28;20280;-66
2022/07/12 05:06:15;;;;;;;12.32;7.82;;;;;;;;;;5009572;28;20041;-66
2022/07/12 05:08:40;;;;;;;15.13;7.83;;;;;;;;;;5009099;28;20056;-66
2022/07/12 05:11:05;;;;;;;13.47;8.67;;;;;;;;;;5008275;28;20384;-67
2022/07/12 05:13:31;;;;;;;14.67;8.73;;;;;;;;;;5008652;28;20286;-67
2022/07/12 05:15:56;;;;;;;11.10;7.30;;;;;;;;;;5009824;28;20366;-67
2022/07/12 05:18:21;;;;;;;12.45;8.02;;;;;;;;;;5008493;28;20299;-67
2022/07/12 05:20:46;;;;;;;11.85;7.63;;;;;;;;;;5008883;28;20029;-67
2022/07/12 05:23:11;;;;;;;12.97;7.57;;;;;;;;;;5007458;28;20481;-67
2022/07/12 05:25:36;;;;;;;9.67;7.07;;;;;;;;;;5007947;28;20403;-67
2022/07/12 05:28:02;;;;;;;9.20;6.93;;;;;;;;;;5006976;28;20645;-67
2022/07/12 05:30:27;;;;;;;10.60;6.90;;;;;;;;;;5010779;28;20360;-66
2022/07/12 05:32:52;;;;;;;12.00;7.07;;;;;;;;;;5009359;28;20038;-67
2022/07/12 05:35:17;;;;;;;9.43;6.40;;;;;;;;;;5007375;28;20057;-67
2022/07/12 05:37:43;;;;;;;8.83;6.43;;;;;;;;;;5007214;28;20030;-67
2022/07/12 05:40:08;;;;;;;7.40;5.27;;;;;;;;;;5006925;28;20332;-66
2022/07/12 05:42:33;;;;;;;9.40;6.03;;;;;;;;;;5008896;28;20275;-67
2022/07/12 05:44:58;;;;;;;15.17;8.97;;;;;;;;;;5005503;28;20057;-67
2022/07/12 05:47:24;;;;;;;12.57;9.97;;;;;;;;;;5006033;28;20378;-67
2022/07/12 05:49:49;;;;;;;13.47;9.20;;;;;;;;;;5006975;28;20277;-66
2022/07/12 05:54:58;;;;;;;15.43;10.63;;;;;;;;;;5006205;28;20189;-67
2022/07/12 05:57:23;;;;;;;20.33;9.88;;;;;;;;;;5005574;28;20529;-67
2022/07/12 05:59:48;;;;;;;18.53;11.40;;;;;;;;;;5007911;28;20414;-67
2022/07/12 06:02:13;;;;;;;15.73;10.27;;;;;;;;;;5006867;28;20281;-66
2022/07/12 06:04:39;;;;;;;19.40;10.23;;;;;;;;;;5009259;28;20052;-67
2022/07/12 06:07:04;;;;;;;16.50;11.80;;;;;;;;;;5009684;28;20276;-66
2022/07/12 06:09:29;;;;;;;11.48;6.43;;;;;;;;;;5010468;28;20268;-66
2022/07/12 06:11:54;;;;;;;18.10;10.10;;;;;;;;;;5007295;28;20024;-66
2022/07/12 06:14:20;;;;;;;16.80;10.40;;;;;;;;;;5009435;28;20032;-67
2022/07/12 06:16:45;;;;;;;12.13;7.88;;;;;;;;;;5008985;28;20045;-66
2022/07/12 06:19:10;;;;;;;16.42;11.82;;;;;;;;;;5004719;28;20017;-67
2022/07/12 06:21:35;;;;;;;13.90;7.93;;;;;;;;;;5010704;28;20018;-67
2022/07/12 06:24:00;;;;;;;15.97;12.07;;;;;;;;;;5011449;28;20372;-67
2022/07/12 06:26:25;;;;;;;17.03;10.37;;;;;;;;;;5006556;28;20281;-67
2022/07/12 06:28:51;;;;;;;17.33;11.13;;;;;;;;;;5008154;28;20327;-67
2022/07/12 06:31:16;;;;;;;17.83;12.48;;;;;;;;;;5005851;28;20018;-67
2022/07/12 06:33:41;;;;;;;17.98;11.02;;;;;;;;;;5007794;28;20030;-67
2022/07/12 06:36:06;;;;;;;19.33;12.07;;;;;;;;;;5009234;28;20018;-67
2022/07/12 06:38:32;;;;;;;19.17;12.90;;;;;;;;;;5011048;28;20817;-67
2022/07/12 06:40:57;;;;;;;18.98;13.15;;;;;;;;;;5010456;28;20268;-67
2022/07/12 06:43:22;;;;;;;19.90;12.60;;;;;;;;;;5010222;28;20069;-67
2022/07/12 06:45:47;;;;;;;16.40;11.37;;;;;;;;;;5008051;28;20279;-67
2022/07/12 06:48:12;;;;;;;17.30;11.40;;;;;;;;;;5009570;28;20339;-67
2022/07/12 06:50:37;;;;;;;17.35;12.13;;;;;;;;;;5009664;28;20308;-67
2022/07/12 06:53:03;;;;;;;19.40;12.30;;;;;;;;;;5008617;28;20462;-67
2022/07/12 06:55:30;;;;;;;17.00;12.00;;;;;;;;;;5010420;28;20285;-67
2022/07/12 06:57:55;;;;;;;17.55;12.32;;;;;;;;;;5006702;28;20025;-67
2022/07/12 07:00:20;;;;;;;16.48;11.90;;;;;;;;;;4990619;28;20074;-67
2022/07/12 07:02:45;;;;;;;17.77;11.68;;;;;;;;;;5008814;28;20025;-67
2022/07/12 07:05:11;;;;;;;11.13;7.38;;;;;;;;;;5011029;28;20104;-66
2022/07/12 07:07:36;;;;;;;13.20;9.50;;;;;;;;;;5009640;28;20020;-67
2022/07/12 07:10:02;;;;;;;14.68;10.43;;;;;;;;;;5007219;28;20033;-67
2022/07/12 07:12:27;;;;;;;14.50;9.50;;;;;;;;;;5006072;28;20159;-67
2022/07/12 07:14:53;;;;;;;11.03;8.60;;;;;;;;;;5010932;28;20029;-67
2022/07/12 07:17:19;;;;;;;14.00;7.43;;;;;;;;;;5007106;28;20315;-67
2022/07/12 07:19:44;;;;;;;12.90;9.38;;;;;;;;;;4992042;28;20785;-67
2022/07/12 07:22:10;;;;;;;14.25;8.98;;;;;;;;;;4991003;28;20022;-67
2022/07/12 07:24:35;;;;;;;13.65;9.75;;;;;;;;;;4987181;28;20083;-67
2022/07/12 07:27:00;;;;;;;15.35;10.07;;;;;;;;;;5001636;28;20040;-67
2022/07/12 07:32:20;;;;;;;15.00;8.82;;;;;;;;;;4935509;28;20367;-67
2022/07/12 07:34:45;;;;;;;14.87;8.53;;;;;;;;;;5006524;28;20445;-67
2022/07/12 07:37:10;;;;;;;12.40;7.23;;;;;;;;;;5008660;28;20284;-67
2022/07/12 07:39:35;;;;;;;26.75;8.77;;;;;;;;;;5008122;28;20022;-67
2022/07/12 07:42:01;;;;;;;11.82;6.85;;;;;;;;;;5009014;28;20060;-67
2022/07/12 07:44:27;;;;;;;9.23;6.93;;;;;;;;;;5008883;28;20025;-67
2022/07/12 07:46:52;;;;;;;11.88;6.50;;;;;;;;;;5008694;28;20026;-67
2022/07/12 07:49:17;;;;;;;11.50;6.63;;;;;;;;;;5010122;28;20467;-67
2022/07/12 07:51:42;;;;;;;9.37;6.50;;;;;;;;;;5007126;28;20168;-67
2022/07/12 07:54:07;;;;;;;14.87;5.90;;;;;;;;;;5006983;28;20049;-68
2022/07/12 07:56:33;;;;;;;14.87;5.90;;;;;;;;;;5008848;28;20030;-68
2022/07/12 07:58:58;;;;;;;17.80;5.60;;;;;;;;;;5006343;28;20291;-67
2022/07/12 08:01:42;;;;;;;21.23;5.60;;;;;;;;;;5007720;28;20028;-68
2022/07/12 08:04:07;;;;;;;11.55;4.68;;;;;;;;;;5009636;28;20021;-68
2022/07/12 08:06:32;;;;;;;7.32;4.68;;;;;;;;;;5006352;28;20026;-67
2022/07/12 08:08:58;;;;;;;9.53;4.90;;;;;;;;;;5009428;28;20032;-67
2022/07/12 08:11:23;;;;;;;6.57;4.70;;;;;;;;;;5008455;28;20627;-67
2022/07/12 08:13:48;;;;;;;9.47;4.67;;;;;;;;;;5006291;28;20037;-67
2022/07/12 08:16:34;;;;;;;6.78;3.97;;;;;;;;;;5031136;22;20137;-89
2022/07/12 08:19:02;;;;;;;8.90;4.78;;;;;;;;;;5021409;28;20032;-89
2022/07/12 08:24:55;;;;;;;6.95;5.80;;;;;;;;;;5045627;28;20030;-90
2022/07/12 08:27:32;;;;;;;8.38;5.63;;;;;;;;;;5023482;28;20027;-92
2022/07/12 08:30:28;;;;;;;12.95;5.03;;;;;;;;;;5033629;28;20525;-90
2022/07/12 08:35:33;;;;;;;7.35;5.03;;;;;;;;;;5002145;28;20093;-69
2022/07/12 08:37:58;;;;;;;9.00;5.60;;;;;;;;;;5013518;28;20025;-69
2022/07/12 08:40:24;;;;;;;6.10;4.50;;;;;;;;;;5014198;28;20024;-69
2022/07/12 08:42:49;;;;;;;7.40;4.20;;;;;;;;;;5018414;28;20018;-67
2022/07/12 08:45:14;;;;;;;8.48;4.90;;;;;;;;;;5007010;28;20280;-67
2022/07/12 08:47:39;;;;;;;5.67;4.13;;;;;;;;;;5009544;28;20029;-68
2022/07/12 08:50:14;;;;;;;5.53;3.47;;;;;;;;;;5006851;28;20645;-69
2022/07/12 08:52:43;;;;;;;5.80;4.55;;;;;;;;;;5011090;28;20024;-69
2022/07/12 08:55:22;;;;;;;5.43;3.67;;;;;;;;;;5006826;28;20030;-69
2022/07/12 08:57:48;;;;;;;4.55;3.50;;;;;;;;;;5003882;28;20029;-69
2022/07/12 09:00:13;;;;;;;7.22;4.82;;;;;;;;;;5016924;28;20502;-68
2022/07/12 09:02:46;;;;;;;6.68;4.38;;;;;;;;;;5010362;28;20014;-68
2022/07/12 09:05:11;;;;;;;6.93;3.67;;;;;;;;;;5006259;28;20104;-69
2022/07/12 09:07:37;;;;;;;6.03;4.20;;;;;;;;;;5010953;28;20116;-69
2022/07/12 09:10:03;;;;;;;6.18;3.55;;;;;;;;;;5010075;28;20037;-70
2022/07/12 09:12:28;;;;;;;6.88;4.00;;;;;;;;;;5011021;28;20036;-70
2022/07/12 09:14:53;;;;;;;8.97;3.53;;;;;;;;;;5008493;28;20034;-69
2022/07/12 09:17:21;;;;;;;4.93;2.83;;;;;;;;;;5016785;28;20068;-69
2022/07/12 09:19:57;;;;;;;3.75;2.30;;;;;;;;;;5017400;28;20022;-68
2022/07/12 09:22:22;;;;;;;3.40;2.80;;;;;;;;;;5011163;28;20025;-68
2022/07/12 09:24:47;;;;;;;6.43;2.50;;;;;;;;;;5014427;28;20022;-68
2022/07/12 09:27:13;;;;;;;4.80;2.30;;;;;;;;;;5019537;28;20376;-68
2022/07/12 09:29:48;;;;;;;4.50;1.98;;;;;;;;;;5011187;28;20490;-68
2022/07/12 09:37:41;;;;;;;2.85;1.70;;;;;;;;;;5015714;28;20406;-71
2022/07/12 09:40:07;;;;;;;3.13;1.87;;;;;;;;;;5007145;28;20022;-71
2022/07/12 09:42:33;;;;;;;2.03;1.70;;;;;;;;;;5011407;28;20030;-70
2022/07/12 09:45:00;;;;;;;2.00;1.70;;;;;;;;;;5015188;28;20393;-70
2022/07/12 09:47:26;;;;;;;3.17;1.88;;;;;;;;;;5013784;28;20214;-70
2022/07/12 09:49:52;;;;;;;3.78;2.30;;;;;;;;;;5016240;28;20021;-69
2022/07/12 09:52:21;;;;;;;3.28;1.95;;;;;;;;;;5010191;28;20026;-70
2022/07/12 09:54:46;;;;;;;5.80;2.30;;;;;;;;;;5016339;28;20113;-72
2022/07/12 09:57:29;;;;;;;3.83;1.73;;;;;;;;;;5025761;28;20112;-70
2022/07/12 09:59:54;;;;;;;3.88;1.40;;;;;;;;;;5007561;28;20375;-70
2022/07/12 10:02:23;;;;;;;3.67;1.63;;;;;;;;;;5007339;28;20020;-69
2022/07/12 10:04:49;;;;;;;2.20;1.60;;;;;;;;;;5015511;28;20026;-70
2022/07/12 10:07:15;;;;;;;1.77;1.52;;;;;;;;;;5005594;28;20021;-72
2022/07/12 10:09:41;;;;;;;1.73;1.40;;;;;;;;;;5006041;28;20104;-70
2022/07/12 10:12:08;;;;;;;1.70;1.40;;;;;;;;;;5009520;28;20141;-71
2022/07/12 10:14:33;;;;;;;3.67;1.70;;;;;;;;;;5020356;28;20014;-70
2022/07/12 10:16:59;;;;;;;2.10;1.30;;;;;;;;;;5007279;28;20100;-70
2022/07/12 10:19:28;;;;;;;3.70;1.38;;;;;;;;;;5019298;28;20286;-70
2022/07/12 10:21:54;;;;;;;2.58;1.13;;;;;;;;;;5011401;28;20553;-70
2022/07/12 10:24:32;;;;;;;1.25;0.82;;;;;;;;;;5011011;28;20041;-71
2022/07/12 10:26:58;;;;;;;1.05;0.90;;;;;;;;;;5016884;28;20113;-71
2022/07/12 10:29:24;;;;;;;1.60;1.00;;;;;;;;;;5008841;28;20104;-71
2022/07/12 10:31:49;;;;;;;1.17;1.00;;;;;;;;;;5015602;28;20512;-71
2022/07/12 10:34:27;;;;;;;1.45;1.00;;;;;;;;;;5011108;28;20038;-71
2022/07/12 10:36:55;;;;;;;2.33;1.05;;;;;;;;;;5017952;28;20397;-71
2022/07/12 10:39:21;;;;;;;3.33;0.95;;;;;;;;;;5016035;28;20358;-71
2022/07/12 10:42:07;;;;;;;3.55;1.05;;;;;;;;;;5016711;28;20463;-71
2022/07/12 10:44:37;;;;;;;1.33;1.23;;;;;;;;;;5009698;28;20407;-71
2022/07/12 10:47:03;;;;;;;2.45;1.33;;;;;;;;;;5008188;28;20025;-71
2022/07/12 10:49:29;;;;;;;1.45;1.00;;;;;;;;;;5015097;28;20482;-70
2022/07/12 10:52:09;;;;;;;1.27;1.17;;;;;;;;;;5013550;28;20530;-70
2022/07/12 10:54:35;;;;;;;1.50;1.20;;;;;;;;;;5015388;28;20348;-70
2022/07/12 10:57:00;;;;;;;4.55;1.30;;;;;;;;;;5011858;28;20021;-71
2022/07/12 10:59:25;;;;;;;1.83;1.60;;;;;;;;;;5008436;28;20071;-70
2022/07/12 11:01:52;;;;;;;2.03;1.00;;;;;;;;;;5011167;28;20331;-69
2022/07/12 11:04:17;;;;;;;9.98;0.95;;;;;;;;;;5010611;28;20363;-71
2022/07/12 11:06:42;;;;;;;4.80;1.20;;;;;;;;;;5004094;28;20044;-70
2022/07/12 11:09:08;;;;;;;4.90;1.10;;;;;;;;;;5010226;28;20042;-70
2022/07/12 11:11:35;;;;;;;1.45;1.20;;;;;;;;;;5016587;28;20045;-70
2022/07/12 11:14:01;;;;;;;4.68;1.00;;;;;;;;;;5009284;28;20152;-70
2022/07/12 11:16:27;;;;;;;1.30;0.88;;;;;;;;;;5015767;28;20448;-70
2022/07/12 11:18:53;;;;;;;1.13;1.02;;;;;;;;;;5001657;28;20024;-70
2022/07/12 11:21:18;;;;;;;1.40;1.15;;;;;;;;;;5015646;28;20026;-70
2022/07/12 11:23:44;;;;;;;1.58;1.20;;;;;;;;;;5008444;28;20093;-70
2022/07/12 11:26:10;;;;;;;3.63;1.20;;;;;;;;;;5019968;28;20013;-70
2022/07/12 11:28:36;;;;;;;2.28;1.10;;;;;;;;;;5011611;28;20299;-70
2022/07/12 11:31:03;;;;;;;2.08;1.05;;;;;;;;;;5010265;28;20069;-70
2022/07/12 11:33:32;;;;;;;2.92;1.17;;;;;;;;;;5004149;28;20034;-70
2022/07/12 11:35:58;;;;;;;2.35;1.50;;;;;;;;;;5008911;28;20105;-70
2022/07/12 11:38:25;;;;;;;1.95;1.15;;;;;;;;;;5011791;28;20017;-70
2022/07/12 11:40:57;;;;;;;1.52;1.23;;;;;;;;;;5015872;28;20029;-70
2022/07/12 11:43:22;;;;;;;2.42;1.50;;;;;;;;;;5008471;28;20021;-70
2022/07/12 11:45:48;;;;;;;1.20;1.10;;;;;;;;;;5007300;28;20072;-70
2022/07/12 11:48:13;;;;;;;2.97;1.30;;;;;;;;;;5002309;28;20038;-70
2022/07/12 11:50:42;;;;;;;1.92;1.10;;;;;;;;;;5007053;28;20021;-70
2022/07/12 11:53:14;;;;;;;2.38;1.33;;;;;;;;;;5006834;28;20030;-69
2022/07/12 11:55:46;;;;;;;1.55;1.20;;;;;;;;;;5011465;28;20033;-70
2022/07/12 11:58:12;;;;;;;1.45;0.93;;;;;;;;;;5014230;28;20217;-71
2022/07/12 12:00:38;;;;;;;1.35;1.10;;;;;;;;;;5011489;28;20018;-69
2022/07/12 12:03:04;;;;;;;4.22;1.55;;;;;;;;;;5009785;28;20063;-69
2022/07/12 12:05:29;;;;;;;2.47;1.13;;;;;;;;;;5005861;28;20026;-70
2022/07/12 12:07:55;;;;;;;1.45;1.00;;;;;;;;;;5015482;28;20164;-70
2022/07/12 12:10:20;;;;;;;1.15;0.98;;;;;;;;;;5008394;28;20041;-70
2022/07/12 12:12:49;;;;;;;3.23;1.33;;;;;;;;;;5016232;28;20024;-70
2022/07/12 12:15:15;;;;;;;4.88;1.00;;;;;;;;;;5013682;28;20030;-70
2022/07/12 12:17:50;;;;;;;1.50;1.17;;;;;;;;;;5009507;28;20054;-70
2022/07/12 12:20:19;;;;;;;1.73;1.08;;;;;;;;;;5013920;28;20531;-70
2022/07/12 12:22:45;;;;;;;3.45;1.42;;;;;;;;;;5010792;28;20018;-69
2022/07/12 12:25:13;;;;;;;1.27;1.00;;;;;;;;;;5020238;28;20432;-70
2022/07/12 12:27:42;;;;;;;3.80;1.30;;;;;;;;;;5009115;28;20439;-70
2022/07/12 12:30:07;;;;;;;1.30;0.87;;;;;;;;;;5010700;28;20032;-70
2022/07/12 12:32:45;;;;;;;1.17;0.98;;;;;;;;;;5009171;28;20018;-70
2022/07/12 12:35:11;;;;;;;1.58;1.13;;;;;;;;;;5010343;28;20483;-70
2022/07/12 12:37:36;;;;;;;1.38;1.02;;;;;;;;;;5012170;28;20094;-70
2022/07/12 12:40:02;;;;;;;2.33;1.30;;;;;;;;;;5016256;28;20017;-70
2022/07/12 12:42:28;;;;;;;1.27;1.10;;;;;;;;;;5007145;28;20284;-70
2022/07/12 12:44:53;;;;;;;0.82;0.77;;;;;;;;;;5009835;28;20033;-71
2022/07/12 12:47:30;;;;;;;3.97;1.00;;;;;;;;;;5018792;28;20110;-70
2022/07/12 12:49:57;;;;;;;4.25;1.15;;;;;;;;;;5009738;28;20509;-72
2022/07/12 12:52:22;;;;;;;2.17;1.33;;;;;;;;;;5020912;28;20025;-71
2022/07/12 12:54:47;;;;;;;1.60;1.05;;;;;;;;;;5013799;28;20034;-71
2022/07/12 12:57:12;;;;;;;2.00;1.27;;;;;;;;;;5011185;28;20026;-71
2022/07/12 12:59:38;;;;;;;1.23;0.93;;;;;;;;;;5013922;28;20152;-71
2022/07/12 13:02:03;;;;;;;3.80;1.08;;;;;;;;;;5014067;28;20319;-70
2022/07/12 13:04:30;;;;;;;1.02;0.88;;;;;;;;;;5009532;28;20489;-71
2022/07/12 13:06:55;;;;;;;1.80;1.10;;;;;;;;;;5004363;28;20029;-72
2022/07/12 13:09:21;;;;;;;3.17;1.17;;;;;;;;;;5017933;28;20025;-71
2022/07/12 13:11:46;;;;;;;2.47;1.45;;;;;;;;;;5009476;28;20018;-71
2022/07/12 13:14:11;;;;;;;1.80;1.13;;;;;;;;;;5018087;28;20033;-70
2022/07/12 13:16:37;;;;;;;2.80;1.40;;;;;;;;;;5015891;28;20028;-70
2022/07/12 13:19:02;;;;;;;1.52;1.20;;;;;;;;;;5022792;28;20067;-70
2022/07/12 13:21:27;;;;;;;3.23;1.23;;;;;;;;;;5011126;28;20022;-71
2022/07/12 13:23:52;;;;;;;1.00;0.90;;;;;;;;;;5013219;28;20312;-70
2022/07/12 13:26:17;;;;;;;1.37;0.97;;;;;;;;;;5013228;28;20025;-71
2022/07/12 13:28:42;;;;;;;3.73;1.07;;;;;;;;;;5028957;28;20013;-70
2022/07/12 13:31:08;;;;;;;1.63;1.00;;;;;;;;;;5010867;28;20269;-71
2022/07/12 13:33:33;;;;;;;1.53;0.80;;;;;;;;;;5012083;28;20036;-70
2022/07/12 13:35:58;;;;;;;1.60;0.97;;;;;;;;;;5011105;28;20068;-70
2022/07/12 13:38:23;;;;;;;4.33;1.20;;;;;;;;;;5011396;28;20061;-70
2022/07/12 13:40:49;;;;;;;4.18;1.10;;;;;;;;;;5016145;28;20284;-70
2022/07/12 13:43:14;;;;;;;1.83;1.20;;;;;;;;;;5009233;28;20076;-69
2022/07/12 13:45:43;;;;;;;3.23;0.97;;;;;;;;;;5014850;28;20029;-69
2022/07/12 13:48:09;;;;;;;7.95;1.55;;;;;;;;;;5014596;28;20334;-69
2022/07/12 13:50:34;;;;;;;3.20;1.43;;;;;;;;;;5021770;28;20021;-69
2022/07/12 13:52:59;;;;;;;2.07;1.30;;;;;;;;;;5019142;28;20017;-70
2022/07/12 13:55:24;;;;;;;1.92;1.20;;;;;;;;;;5016233;28;20026;-70
2022/07/12 13:57:50;;;;;;;1.63;1.00;;;;;;;;;;5017143;28;20084;-69
2022/07/12 14:00:16;;;;;;;4.72;1.17;;;;;;;;;;5016804;28;20697;-69
2022/07/12 14:02:42;;;;;;;9.20;1.60;;;;;;;;;;5014396;28;20025;-69
2022/07/12 14:05:08;;;;;;;4.75;1.55;;;;;;;;;;5015448;28;20025;-69
2022/07/12 14:07:33;;;;;;;3.22;1.58;;;;;;;;;;5015227;28;20398;-70
2022/07/12 14:09:59;;;;;;;4.55;1.77;;;;;;;;;;5019875;28;20092;-69
2022/07/12 14:12:25;;;;;;;6.35;1.63;;;;;;;;;;5014482;28;20443;-69
2022/07/12 14:17:34;;;;;;;3.90;1.58;;;;;;;;;;5016581;28;20084;-69
2022/07/12 14:20:00;;;;;;;4.57;1.73;;;;;;;;;;5016288;28;20070;-69
2022/07/12 14:22:25;;;;;;;2.92;1.52;;;;;;;;;;5016974;28;20281;-69
2022/07/12 14:24:50;;;;;;;5.80;2.15;;;;;;;;;;5014183;28;20183;-69
2022/07/12 14:27:15;;;;;;;5.80;1.50;;;;;;;;;;5009412;28;20116;-70
2022/07/12 14:29:40;;;;;;;4.03;1.73;;;;;;;;;;5010824;28;20021;-69
2022/07/12 14:32:06;;;;;;;7.83;1.77;;;;;;;;;;5003828;28;20444;-69
2022/07/12 14:34:31;;;;;;;5.13;1.60;;;;;;;;;;5003877;28;20761;-69
2022/07/12 14:36:56;;;;;;;4.33;1.73;;;;;;;;;;5014269;28;20700;-69
2022/07/12 14:39:21;;;;;;;3.30;1.90;;;;;;;;;;5009579;28;20018;-69
2022/07/12 14:41:46;;;;;;;4.53;1.93;;;;;;;;;;5012072;28;20578;-69
2022/07/12 14:44:12;;;;;;;3.05;1.65;;;;;;;;;;5017034;28;20280;-70
2022/07/12 14:46:37;;;;;;;6.00;1.80;;;;;;;;;;5011319;28;20026;-69
2022/07/12 14:49:03;;;;;;;4.50;1.40;;;;;;;;;;5040076;22;20037;-89